Terminal Aerodrome Forecast
Issued by NWS Rapid City, SD

Home | Current Version | Previous Version | Text Only | Print | Product List | Glossary On
Versions: 1 2 3 4 5 6 7 8 9 10 11 12 13 14 15 16 17 18 19 20 21
000
FTUS43 KUNR 182320
TAFRAP
TAF
KRAP 182320Z 1900/1924 33009KT P6SM OVC007
     FM190300 35020G30KT 5SM -RA OVC007
     FM190700 34024G34KT P6SM OVC015
     FM190900 33025G35KT P6SM SKC=

USA.gov is the U.S. government's official web portal to all federal, state and local government web resources and services.